createdAt,value
2018-12-18T00:02:32.715Z,53.93
2018-12-18T00:05:12.622Z,58.87
2018-12-18T00:07:49.363Z,60.03
2018-12-18T00:10:20.716Z,58.10
2018-12-18T00:12:52.680Z,56.10
2018-12-18T00:15:24.881Z,57.00
2018-12-18T00:17:59.360Z,59.90
2018-12-18T00:20:37.460Z,57.53
2018-12-18T00:23:09.321Z,57.63
2018-12-18T00:25:48.060Z,58.10
2018-12-18T00:28:22.321Z,57.43
2018-12-18T00:30:56.744Z,60.03
2018-12-18T00:33:35.100Z,57.07
2018-12-18T00:36:10.241Z,54.17
2018-12-18T00:38:50.914Z,61.57
2018-12-18T00:41:25.714Z,55.97
2018-12-18T00:44:04.573Z,63.63
2018-12-18T00:46:36.474Z,57.37
2018-12-18T00:49:11.457Z,62.17
2018-12-18T00:51:45.498Z,56.40
2018-12-18T00:54:19.519Z,53.70
2018-12-18T00:56:53.419Z,56.27
2018-12-18T00:59:27.578Z,56.53
2018-12-18T01:05:00.140Z,53.83
2018-12-18T01:07:31.540Z,58.27
2018-12-18T01:10:07.050Z,54.27
2018-12-18T01:12:45.542Z,60.47
2018-12-18T01:15:17.060Z,54.77
2018-12-18T01:17:51.421Z,51.30
2018-12-18T01:20:23.062Z,53.23
2018-12-18T01:22:56.823Z,49.07
2018-12-18T01:25:31.201Z,53.50
2018-12-18T01:28:03.219Z,48.70
2018-12-18T01:30:35.119Z,54.30
2018-12-18T01:33:07.138Z,49.23
2018-12-18T01:35:45.825Z,56.70
2018-12-18T01:38:20.801Z,53.77
2018-12-18T01:40:55.418Z,50.93
2018-12-18T01:43:26.658Z,51.10
2018-12-18T01:46:02.539Z,49.90
2018-12-18T01:48:33.899Z,56.67
2018-12-18T01:51:05.639Z,59.03
2018-12-18T01:53:39.819Z,55.80
2018-12-18T01:56:11.181Z,52.53
2018-12-18T01:58:43.200Z,58.97
2018-12-18T02:01:15.019Z,65.47
2018-12-18T02:03:46.559Z,59.37
2018-12-18T02:06:20.902Z,54.10
2018-12-18T02:08:58.874Z,48.37
2018-12-18T02:11:32.734Z,65.33
2018-12-18T02:14:04.153Z,67.67
2018-12-18T02:16:44.775Z,59.53
2018-12-18T02:19:16.815Z,40.87
2018-12-18T02:21:48.435Z,50.23
2018-12-18T02:24:22.154Z,40.07
2018-12-18T02:26:55.994Z,48.70
2018-12-18T02:29:30.193Z,66.33
2018-12-18T02:32:01.266Z,53.77
2018-12-18T02:34:35.153Z,61.23
2018-12-18T02:37:06.536Z,56.30
2018-12-18T02:39:42.041Z,60.13
2018-12-18T02:42:19.721Z,49.77
2018-12-18T02:44:53.722Z,63.20
2018-12-18T02:47:29.539Z,59.37
2018-12-18T02:50:07.761Z,37.83
2018-12-18T02:52:39.727Z,42.67
2018-12-18T02:55:11.315Z,49.40
2018-12-18T02:57:43.321Z,52.63
2018-12-18T03:00:14.470Z,57.57
2018-12-18T03:02:45.978Z,55.43
2018-12-18T03:05:17.764Z,58.50
2018-12-18T03:07:54.019Z,57.07
2018-12-18T03:10:28.064Z,61.60
2018-12-18T03:13:01.821Z,71.10
2018-12-18T03:15:35.903Z,67.33
2018-12-18T03:18:09.864Z,55.13
2018-12-18T03:20:44.150Z,55.90
2018-12-18T03:23:17.981Z,53.60
2018-12-18T03:25:49.162Z,57.17
2018-12-18T03:28:23.522Z,53.23
2018-12-18T03:30:57.741Z,54.93
2018-12-18T03:33:32.062Z,50.17
2018-12-18T03:36:06.707Z,50.83
2018-12-18T03:38:38.241Z,51.57
2018-12-18T03:41:12.563Z,49.57
2018-12-18T03:43:44.164Z,45.33
2018-12-18T03:46:18.862Z,50.13
2018-12-18T03:48:53.950Z,50.67
2018-12-18T03:51:27.861Z,55.53
2018-12-18T03:54:02.563Z,46.87
2018-12-18T03:56:40.402Z,57.80
2018-12-18T03:59:12.002Z,55.37
2018-12-18T04:04:22.542Z,49.77
2018-12-18T04:06:54.663Z,54.83
2018-12-18T04:09:29.681Z,53.30
2018-12-18T04:12:09.305Z,55.50
2018-12-18T04:14:47.755Z,55.07
2018-12-18T04:17:19.435Z,56.50
2018-12-18T04:19:53.355Z,51.40
2018-12-18T04:22:27.258Z,51.37
2018-12-18T04:24:58.455Z,54.97
2018-12-18T04:27:32.133Z,53.50
2018-12-18T04:30:06.693Z,53.03
2018-12-18T04:32:40.875Z,50.63
2018-12-18T04:35:15.077Z,47.23
2018-12-18T04:37:49.094Z,50.83
2018-12-18T04:40:23.014Z,48.53
2018-12-18T04:42:56.854Z,48.27
2018-12-18T04:45:28.034Z,52.33
2018-12-18T04:48:09.256Z,50.13
2018-12-18T04:50:45.154Z,49.20
2018-12-18T04:53:20.914Z,51.63
2018-12-18T04:55:53.274Z,51.13
2018-12-18T04:58:27.654Z,46.60
2018-12-18T05:01:01.742Z,49.40
2018-12-18T05:03:32.917Z,45.83
2018-12-18T05:06:07.340Z,42.47
2018-12-18T05:08:41.918Z,47.93
2018-12-18T05:11:13.219Z,53.93
2018-12-18T05:13:47.838Z,45.10
2018-12-18T05:16:22.884Z,50.47
2018-12-18T05:18:54.085Z,56.20
2018-12-18T05:21:32.843Z,52.50
2018-12-18T05:24:09.385Z,57.80
2018-12-18T05:26:43.404Z,55.67
2018-12-18T05:29:26.108Z,57.93
2018-12-18T05:32:05.447Z,54.30
2018-12-18T05:34:36.544Z,53.60
2018-12-18T05:37:07.318Z,54.53
2018-12-18T05:39:41.365Z,52.30
2018-12-18T05:42:19.203Z,51.30
2018-12-18T05:44:50.404Z,57.60
2018-12-18T05:47:24.787Z,51.03
2018-12-18T05:49:59.064Z,54.13
2018-12-18T05:52:36.526Z,51.97
2018-12-18T05:55:10.488Z,55.77
2018-12-18T05:57:44.187Z,54.07
2018-12-18T06:00:15.105Z,53.20
2018-12-18T06:02:46.762Z,50.93
2018-12-18T06:05:19.042Z,53.60
2018-12-18T06:07:50.718Z,53.47
2018-12-18T06:10:24.498Z,66.93
2018-12-18T06:12:59.878Z,63.33
2018-12-18T06:15:34.171Z,64.33
2018-12-18T06:18:10.246Z,58.60
2018-12-18T06:20:45.469Z,62.97
2018-12-18T06:23:24.095Z,65.80
2018-12-18T06:25:55.477Z,68.30
2018-12-18T06:28:32.335Z,72.97
2018-12-18T06:31:06.635Z,65.33
2018-12-18T06:33:41.116Z,67.07
2018-12-18T06:36:15.675Z,68.93
2018-12-18T06:38:50.561Z,63.57
2018-12-18T06:41:24.777Z,73.73
2018-12-18T06:44:00.735Z,64.93
2018-12-18T06:46:35.395Z,71.87
2018-12-18T06:49:09.615Z,65.80
2018-12-18T06:51:43.674Z,67.63
2018-12-18T06:54:17.536Z,61.30
2018-12-18T06:56:48.816Z,63.93
2018-12-18T06:59:23.835Z,65.83
2018-12-18T07:01:58.080Z,62.67
2018-12-18T07:04:29.801Z,61.70
2018-12-18T07:07:01.719Z,60.40
2018-12-18T07:09:36.579Z,64.70
2018-12-18T07:12:11.517Z,64.73
2018-12-18T07:14:50.097Z,60.43
2018-12-18T07:17:24.618Z,63.47
2018-12-18T07:20:01.096Z,60.37
2018-12-18T07:22:35.196Z,63.83
2018-12-18T07:25:09.335Z,62.47
2018-12-18T07:27:40.478Z,61.37
2018-12-18T07:30:15.618Z,56.87
2018-12-18T07:32:52.421Z,55.13
2018-12-18T07:35:26.900Z,57.10
2018-12-18T07:38:00.976Z,59.57
2018-12-18T07:40:32.062Z,58.73
2018-12-18T07:43:06.759Z,57.43
2018-12-18T07:45:53.900Z,57.53
2018-12-18T07:48:25.256Z,59.27
2018-12-18T07:50:58.875Z,60.43
2018-12-18T07:53:32.836Z,56.77
2018-12-18T07:56:07.157Z,49.27
2018-12-18T07:58:40.939Z,60.03
2018-12-18T08:01:20.211Z,62.17
2018-12-18T08:03:52.362Z,45.93
2018-12-18T08:06:26.626Z,44.90
2018-12-18T08:09:00.643Z,40.40
2018-12-18T08:11:32.144Z,52.57
2018-12-18T08:14:06.660Z,54.07
2018-12-18T08:16:40.960Z,50.80
2018-12-18T08:19:14.959Z,55.57
2018-12-18T08:21:46.820Z,53.80
2018-12-18T08:24:21.380Z,55.00
2018-12-18T08:26:55.598Z,48.53
2018-12-18T08:29:26.556Z,46.23
2018-12-18T08:32:00.555Z,50.97
2018-12-18T08:34:31.757Z,47.63
2018-12-18T08:37:05.517Z,46.43
2018-12-18T08:39:39.076Z,50.20
2018-12-18T08:42:13.457Z,42.77
2018-12-18T08:44:44.918Z,54.00
2018-12-18T08:47:19.236Z,56.13
2018-12-18T08:49:53.176Z,58.97
2018-12-18T08:52:24.195Z,52.63
2018-12-18T08:54:58.876Z,58.90
2018-12-18T08:57:29.836Z,57.40
2018-12-18T09:00:04.136Z,55.27
2018-12-18T09:02:36.066Z,60.10
2018-12-18T09:05:07.886Z,56.57
2018-12-18T09:07:42.405Z,57.03
2018-12-18T09:10:14.444Z,55.20
2018-12-18T09:12:45.835Z,39.30
2018-12-18T09:15:25.335Z,41.63
2018-12-18T09:17:59.675Z,42.10
2018-12-18T09:20:31.335Z,34.67
2018-12-18T09:23:05.938Z,44.40
2018-12-18T09:25:40.121Z,40.97
2018-12-18T09:28:13.921Z,36.93
2018-12-18T09:30:47.679Z,30.60
2018-12-18T09:33:29.600Z,34.57
2018-12-18T09:36:03.659Z,33.90
2018-12-18T09:38:43.345Z,29.87
2018-12-18T09:41:23.501Z,29.33
2018-12-18T09:43:59.023Z,29.00
2018-12-18T09:46:31.020Z,31.03
2018-12-18T09:49:03.040Z,25.27
2018-12-18T09:51:37.260Z,27.40
2018-12-18T09:54:11.502Z,28.03
2018-12-18T09:56:50.926Z,40.20
2018-12-18T09:59:24.919Z,44.73
2018-12-18T10:02:00.326Z,44.13
2018-12-18T10:04:32.526Z,41.50
2018-12-18T10:07:03.735Z,40.47
2018-12-18T10:09:37.946Z,41.20
2018-12-18T10:12:12.155Z,35.33
2018-12-18T10:14:46.368Z,33.27
2018-12-18T10:17:20.365Z,39.47
2018-12-18T10:19:52.045Z,37.87
2018-12-18T10:22:26.507Z,36.93
2018-12-18T10:25:00.786Z,36.33
2018-12-18T10:27:35.267Z,34.07
2018-12-18T10:30:10.979Z,36.50
2018-12-18T10:32:42.565Z,30.73
2018-12-18T10:35:17.427Z,30.40
2018-12-18T10:37:51.667Z,24.50
2018-12-18T10:40:25.527Z,29.57
2018-12-18T10:42:59.213Z,26.67
2018-12-18T10:45:34.606Z,24.27
2018-12-18T10:48:11.208Z,25.10
2018-12-18T10:50:43.207Z,30.80
2018-12-18T10:53:17.447Z,31.27
2018-12-18T10:55:48.947Z,20.77
2018-12-18T10:58:24.173Z,25.33
2018-12-18T11:01:04.852Z,28.57
2018-12-18T11:03:39.501Z,40.00
2018-12-18T11:06:10.841Z,36.90
2018-12-18T11:08:51.762Z,36.40
2018-12-18T11:11:26.764Z,39.07
2018-12-18T11:13:58.482Z,36.67
2018-12-18T11:16:29.461Z,36.43
2018-12-18T11:19:07.182Z,39.77
2018-12-18T11:21:41.440Z,38.03
2018-12-18T11:24:15.921Z,36.37
2018-12-18T11:26:50.221Z,39.70
2018-12-18T11:29:28.200Z,42.57
2018-12-18T11:32:02.382Z,40.60
2018-12-18T11:34:36.082Z,40.93
2018-12-18T11:37:09.743Z,39.87
2018-12-18T11:39:43.661Z,37.70
2018-12-18T11:42:17.523Z,39.63
2018-12-18T11:44:48.742Z,42.87
2018-12-18T11:47:20.621Z,40.90
2018-12-18T11:49:54.559Z,39.47
2018-12-18T11:52:28.462Z,39.83
2018-12-18T11:55:03.003Z,41.83
2018-12-18T11:57:37.860Z,33.07
2018-12-18T12:00:12.682Z,34.13
2018-12-18T12:02:44.112Z,31.73
2018-12-18T12:05:16.082Z,33.40
2018-12-18T12:07:56.463Z,40.37
2018-12-18T12:10:30.700Z,42.43
2018-12-18T12:13:02.023Z,37.30
2018-12-18T12:15:37.919Z,43.53
2018-12-18T12:18:11.821Z,40.93
2018-12-18T12:20:45.843Z,43.90
2018-12-18T12:23:20.000Z,42.93
2018-12-18T12:25:55.601Z,43.03
2018-12-18T12:28:29.481Z,41.27
2018-12-18T12:31:00.741Z,46.50
2018-12-18T12:33:35.324Z,46.03
2018-12-18T12:36:09.061Z,37.50
2018-12-18T12:38:43.502Z,41.23
2018-12-18T12:41:17.662Z,42.53
2018-12-18T12:43:52.241Z,38.63
2018-12-18T12:46:26.559Z,38.77
2018-12-18T12:49:02.725Z,38.03
2018-12-18T12:51:36.480Z,37.63
2018-12-18T12:54:10.540Z,40.40
2018-12-18T12:56:44.142Z,39.03
2018-12-18T12:59:15.355Z,37.43
2018-12-18T13:01:46.257Z,35.33
2018-12-18T13:04:20.057Z,33.50
2018-12-18T13:06:54.077Z,33.07
2018-12-18T13:09:25.438Z,35.63
2018-12-18T13:11:57.418Z,30.97
2018-12-18T13:14:31.657Z,38.23
2018-12-18T13:17:02.738Z,40.97
2018-12-18T13:19:34.258Z,39.53
2018-12-18T13:22:08.717Z,36.03
2018-12-18T13:24:43.498Z,34.33
2018-12-18T13:27:17.759Z,35.90
2018-12-18T13:29:52.658Z,34.17
2018-12-18T13:32:26.879Z,30.73
2018-12-18T13:34:58.259Z,27.57
2018-12-18T13:37:29.677Z,28.17
2018-12-18T13:40:01.617Z,29.70
2018-12-18T13:42:35.198Z,33.67
2018-12-18T13:45:06.878Z,33.77
2018-12-18T13:47:41.218Z,37.47
2018-12-18T13:50:12.719Z,36.93
2018-12-18T13:52:47.157Z,38.00
2018-12-18T13:55:21.218Z,37.50
2018-12-18T13:57:59.798Z,35.53
2018-12-18T14:00:34.248Z,38.40
2018-12-18T14:03:07.949Z,40.40
2018-12-18T14:05:39.801Z,41.63
2018-12-18T14:08:11.200Z,41.77
2018-12-18T14:10:43.203Z,41.17
2018-12-18T14:13:17.661Z,42.33
2018-12-18T14:15:51.661Z,40.63
2018-12-18T14:18:25.400Z,43.63
2018-12-18T14:21:03.222Z,40.33
2018-12-18T14:23:37.001Z,39.97
2018-12-18T14:26:12.460Z,34.97
2018-12-18T14:28:47.020Z,36.20
2018-12-18T14:31:20.582Z,37.83
2018-12-18T14:33:52.061Z,39.53
2018-12-18T14:36:25.881Z,38.13
2018-12-18T14:38:57.141Z,40.03
2018-12-18T14:41:28.622Z,43.13
2018-12-18T14:43:59.982Z,42.93
2018-12-18T14:46:34.543Z,40.10
2018-12-18T14:49:12.341Z,49.80
2018-12-18T14:51:46.542Z,42.67
2018-12-18T14:54:21.502Z,40.80
2018-12-18T14:56:55.986Z,47.33
2018-12-18T14:59:36.301Z,43.40
2018-12-18T15:02:10.557Z,42.40
2018-12-18T15:04:44.258Z,40.80
2018-12-18T15:07:18.197Z,28.90
2018-12-18T15:09:52.317Z,27.53
2018-12-18T15:12:26.218Z,27.00
2018-12-18T15:15:01.140Z,26.33
2018-12-18T15:17:33.097Z,24.30
2018-12-18T15:20:09.257Z,25.00
2018-12-18T15:22:43.439Z,25.23
2018-12-18T15:25:14.856Z,35.60
2018-12-18T15:27:51.058Z,38.90
2018-12-18T15:30:26.107Z,40.87
2018-12-18T15:33:01.323Z,42.27
2018-12-18T15:35:37.937Z,43.93
2018-12-18T15:38:15.756Z,45.23
2018-12-18T15:40:49.918Z,41.20
2018-12-18T15:43:21.057Z,43.67
2018-12-18T15:45:57.457Z,48.33
2018-12-18T15:48:28.976Z,39.10
2018-12-18T15:51:08.595Z,39.33
2018-12-18T15:56:27.835Z,33.37
2018-12-18T15:59:02.074Z,56.63
2018-12-18T16:01:38.879Z,47.47
2018-12-18T16:04:12.819Z,46.50
2018-12-18T16:06:46.600Z,43.50
2018-12-18T16:09:20.940Z,35.17
2018-12-18T16:11:55.520Z,31.20
2018-12-18T16:14:30.059Z,33.20
2018-12-18T16:17:04.942Z,44.47
2018-12-18T16:19:38.919Z,34.03
2018-12-18T16:22:10.020Z,37.37
2018-12-18T16:24:50.481Z,43.83
2018-12-18T16:27:28.920Z,28.30
2018-12-18T16:30:02.650Z,24.27
2018-12-18T16:32:36.739Z,23.30
2018-12-18T16:35:10.360Z,21.27
2018-12-18T16:37:44.482Z,18.33
2018-12-18T16:43:00.642Z,19.27
2018-12-18T16:45:31.439Z,18.07
2018-12-18T16:48:02.941Z,18.10
2018-12-18T16:50:34.896Z,20.00
2018-12-18T16:53:06.755Z,20.90
2018-12-18T16:55:40.495Z,22.43
2018-12-18T16:58:11.575Z,20.30
2018-12-18T17:00:45.443Z,19.27
2018-12-18T17:03:19.281Z,18.37
2018-12-18T17:05:50.726Z,23.90
2018-12-18T17:08:24.942Z,21.07
2018-12-18T17:10:58.556Z,21.83
2018-12-18T17:13:33.036Z,36.13
2018-12-18T17:16:05.095Z,27.13
2018-12-18T17:18:37.434Z,22.07
2018-12-18T17:21:11.555Z,24.77
2018-12-18T17:23:43.379Z,23.07
2018-12-18T17:26:17.696Z,27.80
2018-12-18T17:28:49.658Z,32.83
2018-12-18T17:31:24.257Z,39.67
2018-12-18T17:33:58.356Z,42.10
2018-12-18T17:36:32.575Z,42.27
2018-12-18T17:39:06.918Z,41.33
2018-12-18T17:41:45.277Z,43.77
2018-12-18T17:44:19.398Z,42.40
2018-12-18T17:47:00.196Z,44.13
2018-12-18T17:49:31.798Z,41.63
2018-12-18T17:52:06.316Z,42.27
2018-12-18T17:54:44.517Z,37.07
2018-12-18T17:57:20.658Z,31.73
2018-12-18T17:59:52.317Z,32.53
2018-12-18T18:02:26.038Z,32.37
2018-12-18T18:05:00.148Z,33.50
2018-12-18T18:07:33.728Z,34.00
2018-12-18T18:10:08.535Z,32.07
2018-12-18T18:12:42.715Z,29.23
2018-12-18T18:15:16.696Z,35.73
2018-12-18T18:17:51.215Z,30.17
2018-12-18T18:20:22.736Z,33.77
2018-12-18T18:22:53.933Z,46.07
2018-12-18T18:25:28.939Z,42.23
2018-12-18T18:28:07.463Z,33.23
2018-12-18T18:30:41.477Z,38.80
2018-12-18T18:33:16.175Z,39.50
2018-12-18T18:35:52.019Z,46.63
2018-12-18T18:38:23.555Z,46.47
2018-12-18T18:41:03.984Z,44.40
2018-12-18T18:43:35.347Z,36.57
2018-12-18T18:46:06.704Z,44.67
2018-12-18T18:48:41.584Z,40.17
2018-12-18T18:51:15.325Z,55.23
2018-12-18T18:53:46.405Z,53.27
2018-12-18T18:56:17.846Z,44.67
2018-12-18T18:58:49.164Z,49.97
2018-12-18T19:01:20.282Z,42.73
2018-12-18T19:03:54.947Z,51.70
2018-12-18T19:06:29.210Z,42.03
2018-12-18T19:09:05.280Z,37.23
2018-12-18T19:11:37.281Z,36.67
2018-12-18T19:14:15.604Z,40.67
2018-12-18T19:16:47.422Z,39.30
2018-12-18T19:19:21.609Z,41.80
2018-12-18T19:21:56.479Z,45.07
2018-12-18T19:24:30.261Z,43.33
2018-12-18T19:27:04.704Z,41.37
2018-12-18T19:32:16.902Z,46.63
2018-12-18T19:34:50.642Z,44.83
2018-12-18T19:37:22.542Z,45.23
2018-12-18T19:39:56.981Z,51.43
2018-12-18T19:42:30.788Z,49.00
2018-12-18T19:45:04.957Z,41.70
2018-12-18T19:47:42.722Z,48.13
2018-12-18T19:50:18.565Z,49.37
2018-12-18T19:52:52.799Z,49.90
2018-12-18T19:55:26.741Z,46.93
2018-12-18T20:00:45.720Z,51.30
2018-12-18T20:03:24.978Z,47.10
2018-12-18T20:05:56.362Z,51.33
2018-12-18T20:08:28.663Z,50.30
2018-12-18T20:11:02.937Z,50.17
2018-12-18T20:13:39.499Z,44.23
2018-12-18T20:16:19.141Z,43.67
2018-12-18T20:18:53.564Z,46.93
2018-12-18T20:21:29.795Z,45.33
2018-12-18T20:24:11.847Z,45.33
2018-12-18T20:26:50.855Z,48.43
2018-12-18T20:29:22.114Z,49.47
2018-12-18T20:31:57.855Z,47.13
2018-12-18T20:34:36.598Z,52.93
2018-12-18T20:37:10.981Z,46.73
2018-12-18T20:39:44.901Z,51.37
2018-12-18T20:42:16.322Z,53.63
2018-12-18T20:44:50.363Z,50.93
2018-12-18T20:47:24.361Z,47.87
2018-12-18T20:49:58.404Z,48.93
2018-12-18T20:52:32.404Z,48.33
2018-12-18T20:55:06.414Z,44.93
2018-12-18T20:57:37.875Z,47.30
2018-12-18T21:00:13.409Z,45.63
2018-12-18T21:02:45.003Z,46.63
2018-12-18T21:05:19.642Z,45.87
2018-12-18T21:07:54.772Z,47.13
2018-12-18T21:10:29.459Z,51.97
2018-12-18T21:13:09.841Z,46.67
2018-12-18T21:15:44.034Z,47.97
2018-12-18T21:18:14.967Z,51.10
2018-12-18T21:20:53.743Z,54.30
2018-12-18T21:23:25.447Z,48.30
2018-12-18T21:26:00.977Z,48.97
2018-12-18T21:28:41.406Z,48.40
2018-12-18T21:31:15.990Z,49.03
2018-12-18T21:33:51.507Z,48.67
2018-12-18T21:36:22.654Z,43.17
2018-12-18T21:38:53.604Z,51.10
2018-12-18T21:41:27.095Z,47.43
2018-12-18T21:44:02.671Z,48.53
2018-12-18T21:46:37.642Z,55.00
2018-12-18T21:49:11.489Z,49.87
2018-12-18T21:51:42.886Z,45.67
2018-12-18T21:54:20.425Z,51.93
2018-12-18T21:56:59.386Z,46.37
2018-12-18T21:59:33.449Z,50.60
2018-12-18T22:02:07.605Z,47.37
2018-12-18T22:04:41.174Z,47.77
2018-12-18T22:07:15.516Z,49.07
2018-12-18T22:09:46.757Z,48.63
2018-12-18T22:12:22.097Z,51.50
2018-12-18T22:14:56.217Z,45.10
2018-12-18T22:17:30.718Z,45.13
2018-12-18T22:20:05.195Z,42.97
2018-12-18T22:22:40.919Z,43.97
2018-12-18T22:25:15.976Z,42.00
2018-12-18T22:27:48.794Z,47.37
2018-12-18T22:30:27.235Z,47.23
2018-12-18T22:33:02.076Z,46.40
2018-12-18T22:35:34.374Z,52.57
2018-12-18T22:38:09.815Z,47.63
2018-12-18T22:40:44.195Z,50.83
2018-12-18T22:43:16.134Z,50.03
2018-12-18T22:45:48.174Z,47.80
2018-12-18T22:48:19.854Z,46.97
2018-12-18T22:50:54.715Z,46.77
2018-12-18T22:53:30.894Z,44.40
2018-12-18T22:56:06.433Z,58.77
2018-12-18T22:58:41.655Z,57.03
2018-12-18T23:01:17.940Z,56.80
2018-12-18T23:03:52.353Z,54.17
2018-12-18T23:06:26.395Z,58.63
2018-12-18T23:09:00.773Z,54.87
2018-12-18T23:11:36.373Z,55.50
2018-12-18T23:14:11.535Z,54.33
2018-12-18T23:16:50.557Z,56.83
2018-12-18T23:19:25.458Z,67.10
2018-12-18T23:24:38.178Z,73.67
2018-12-18T23:27:11.938Z,67.07
2018-12-18T23:29:45.678Z,71.83
2018-12-18T23:32:16.979Z,69.93
2018-12-18T23:34:48.659Z,74.17
2018-12-18T23:37:22.541Z,71.23
2018-12-18T23:39:56.479Z,60.93
2018-12-18T23:42:36.098Z,55.10
2018-12-18T23:45:10.014Z,60.70
2018-12-18T23:47:41.160Z,54.10
2018-12-18T23:50:19.180Z,56.37
2018-12-18T23:52:51.067Z,65.27
2018-12-18T23:55:24.878Z,60.40
2018-12-18T23:57:59.567Z,61.43
